createdAt,value
2023-03-02T00:00:11.108Z,95799.09
2023-03-02T00:01:13.536Z,95802.84
2023-03-02T00:02:22.625Z,95803.09
2023-03-02T00:03:24.934Z,95807.16
2023-03-02T00:04:28.432Z,95799.66
2023-03-02T00:05:31.079Z,95801.22
2023-03-02T00:06:33.452Z,95804.44
2023-03-02T00:07:36.082Z,95808.72
2023-03-02T00:08:38.811Z,95797.44
2023-03-02T00:09:43.213Z,95799.84
2023-03-02T00:10:45.901Z,95796.31
2023-03-02T00:11:47.903Z,95800.88
2023-03-02T00:12:50.205Z,95794.69
2023-03-02T00:13:52.083Z,95799.28
2023-03-02T00:14:54.291Z,95802.78
2023-03-02T00:15:57.289Z,95797.44
2023-03-02T00:16:59.224Z,95796.38
2023-03-02T00:18:01.134Z,95796.66
2023-03-02T00:19:03.794Z,95789.94
2023-03-02T00:20:12.341Z,95794.78
2023-03-02T00:21:14.206Z,95792.38
2023-03-02T00:22:16.658Z,95793.16
2023-03-02T00:23:19.533Z,95788.84
2023-03-02T00:24:21.687Z,95788.84
2023-03-02T00:25:23.724Z,95788.91
2023-03-02T00:26:27.817Z,95786.72
2023-03-02T00:27:30.534Z,95788.84
2023-03-02T00:28:34.045Z,95779.69
2023-03-02T00:29:35.769Z,95786.13
2023-03-02T00:30:40.843Z,95787.22
2023-03-02T00:31:42.779Z,95789.91
2023-03-02T00:32:45.886Z,95788.84
2023-03-02T00:33:49.163Z,95784.28
2023-03-02T00:34:51.069Z,95792.56
2023-03-02T00:35:53.312Z,95790.38
2023-03-02T00:36:57.841Z,95793.31
2023-03-02T00:38:00.178Z,95796.56
2023-03-02T00:39:03.830Z,95798.19
2023-03-02T00:40:07.476Z,95793.06
2023-03-02T00:41:11.477Z,95793.06
2023-03-02T00:42:14.230Z,95798.53
2023-03-02T00:43:16.891Z,95796.63
2023-03-02T00:44:19.146Z,95798.53
2023-03-02T00:45:21.388Z,95794.50
2023-03-02T00:46:24.856Z,95796.63
2023-03-02T00:47:27.738Z,95802.53
2023-03-02T00:48:29.940Z,95793.16
2023-03-02T00:49:31.730Z,95792.88
2023-03-02T00:50:33.694Z,95792.59
2023-03-02T00:51:35.444Z,95796.31
2023-03-02T00:52:37.508Z,95799.53
2023-03-02T00:53:40.099Z,95802.50
2023-03-02T00:54:42.057Z,95796.31
2023-03-02T00:55:53.662Z,95798.69
2023-03-02T00:56:56.144Z,95796.81
2023-03-02T00:57:58.495Z,95791.94
2023-03-02T00:59:32.113Z,95788.50
2023-03-02T01:00:47.119Z,95787.94
2023-03-02T01:01:58.344Z,95783.34
2023-03-02T01:03:02.060Z,95778.78
2023-03-02T01:04:04.447Z,95785.56
2023-03-02T01:05:08.334Z,95776.94
2023-03-02T01:06:18.777Z,95780.69
2023-03-02T01:07:21.330Z,95787.13
2023-03-02T01:08:25.429Z,95778.78
2023-03-02T01:09:28.307Z,95776.91
2023-03-02T01:10:32.498Z,95772.03
2023-03-02T01:11:34.449Z,95771.47
2023-03-02T01:12:37.624Z,95775.81
2023-03-02T01:13:39.790Z,95767.50
2023-03-02T01:14:44.860Z,95772.06
2023-03-02T01:15:48.901Z,95770.19
2023-03-02T01:16:50.881Z,95772.09
2023-03-02T01:17:52.978Z,95770.47
2023-03-02T01:18:55.424Z,95772.09
2023-03-02T01:19:57.578Z,95759.75
2023-03-02T01:21:03.538Z,95763.53
2023-03-02T01:22:06.056Z,95760.28
2023-03-02T01:23:08.652Z,95765.13
2023-03-02T01:24:11.342Z,95765.97
2023-03-02T01:25:14.775Z,95755.22
2023-03-02T01:26:17.210Z,95753.59
2023-03-02T01:27:21.490Z,95760.28
2023-03-02T01:28:23.909Z,95751.16
2023-03-02T01:29:26.133Z,95747.66
2023-03-02T01:30:29.256Z,95742.59
2023-03-02T01:31:31.541Z,95742.59
2023-03-02T01:32:34.279Z,95744.44
2023-03-02T01:33:36.454Z,95743.88
2023-03-02T01:34:38.713Z,95748.13
2023-03-02T01:35:41.289Z,95752.69
2023-03-02T01:36:45.806Z,95747.06
2023-03-02T01:37:48.020Z,95746.50
2023-03-02T01:38:50.976Z,95739.25
2023-03-02T01:39:52.855Z,95737.63
2023-03-02T01:40:54.944Z,95736.28
2023-03-02T01:41:56.757Z,95738.75
2023-03-02T01:43:02.507Z,95736.88
2023-03-02T01:44:04.544Z,95739.00
2023-03-02T01:45:28.132Z,95736.56
2023-03-02T01:46:35.713Z,95734.94
2023-03-02T01:47:40.273Z,95732.31
2023-03-02T01:48:52.347Z,95737.09
2023-03-02T01:50:23.683Z,95730.38
2023-03-02T01:51:35.313Z,95723.41
2023-03-02T01:52:39.681Z,95729.06
2023-03-02T01:53:47.075Z,95727.16
2023-03-02T01:54:51.301Z,95728.50
2023-03-02T01:55:54.860Z,95727.41
2023-03-02T01:56:59.920Z,95730.34
2023-03-02T01:58:03.079Z,95728.97
2023-03-02T01:59:10.213Z,95730.34
2023-03-02T02:00:19.065Z,95731.69
2023-03-02T02:01:22.905Z,95725.00
2023-03-02T02:02:25.186Z,95724.47
2023-03-02T02:03:29.427Z,95731.69
2023-03-02T02:06:17.956Z,95729.53
2023-03-02T02:07:19.682Z,95732.47
2023-03-02T02:08:21.322Z,95727.34
2023-03-02T02:09:24.073Z,95734.06
2023-03-02T02:10:25.825Z,95729.47
2023-03-02T02:11:27.580Z,95728.72
2023-03-02T02:12:29.123Z,95734.59
2023-03-02T02:13:30.693Z,95727.34
2023-03-02T02:14:32.421Z,95727.59
2023-03-02T02:15:34.484Z,95727.84
2023-03-02T02:16:37.198Z,95728.97
2023-03-02T02:17:38.973Z,95721.97
2023-03-02T02:18:41.190Z,95728.13
2023-03-02T02:19:57.812Z,95720.09
2023-03-02T02:20:59.658Z,95722.47
2023-03-02T02:22:01.872Z,95726.78
2023-03-02T02:23:14.511Z,95722.78
2023-03-02T02:24:27.439Z,95719.59
2023-03-02T02:25:52.961Z,95727.91
2023-03-02T02:26:55.491Z,95726.78
2023-03-02T02:27:57.450Z,95727.59
2023-03-02T02:29:03.148Z,95719.53
2023-03-02T02:30:06.802Z,95723.84
2023-03-02T02:31:15.599Z,95726.53
2023-03-02T02:32:20.365Z,95719.28
2023-03-02T02:33:23.937Z,95715.50
2023-03-02T02:34:31.128Z,95709.56
2023-03-02T02:35:36.552Z,95706.88
2023-03-02T02:36:41.645Z,95705.81
2023-03-02T02:37:52.773Z,95708.44
2023-03-02T02:38:56.419Z,95708.97
2023-03-02T02:40:00.533Z,95705.22
2023-03-02T02:41:03.225Z,95705.22
2023-03-02T02:42:13.730Z,95707.88
2023-03-02T02:43:17.342Z,95702.56
2023-03-02T02:44:19.191Z,95700.66
2023-03-02T02:45:27.533Z,95701.47
2023-03-02T02:46:29.426Z,95707.63
2023-03-02T02:47:31.830Z,95701.63
2023-03-02T02:48:33.610Z,95696.81
2023-03-02T02:49:37.353Z,95697.38
2023-03-02T02:50:39.087Z,95693.09
2023-03-02T02:51:40.946Z,95699.81
2023-03-02T02:52:43.027Z,95696.59
2023-03-02T02:53:48.812Z,95704.69
2023-03-02T02:54:52.952Z,95697.19
2023-03-02T02:55:56.870Z,95696.69
2023-03-02T02:56:59.632Z,95694.28
2023-03-02T02:58:09.997Z,95695.63
2023-03-02T02:59:21.247Z,95692.66
2023-03-02T03:00:23.339Z,95689.91
2023-03-02T03:01:26.150Z,95696.06
2023-03-02T03:02:30.889Z,95692.84
2023-03-02T03:03:36.161Z,95693.94
2023-03-02T03:04:40.887Z,95695.28
2023-03-02T03:05:43.089Z,95690.78
2023-03-02T03:07:02.961Z,95682.22
2023-03-02T03:08:39.486Z,95689.72
2023-03-02T03:09:41.026Z,95692.34
2023-03-02T03:10:43.324Z,95692.06
2023-03-02T03:11:47.928Z,95688.53
2023-03-02T03:12:49.910Z,95688.22
2023-03-02T03:13:55.832Z,95684.19
2023-03-02T03:14:57.731Z,95688.44
2023-03-02T03:16:00.744Z,95690.81
2023-03-02T03:17:02.657Z,95686.75
2023-03-02T03:18:04.953Z,95689.97
2023-03-02T03:19:18.296Z,95684.81
2023-03-02T03:20:19.931Z,95687.81
2023-03-02T03:21:21.606Z,95684.91
2023-03-02T03:22:23.977Z,95688.38
2023-03-02T03:23:25.704Z,95684.38
2023-03-02T03:24:28.997Z,95682.78
2023-03-02T03:25:32.002Z,95687.81
2023-03-02T03:26:34.598Z,95682.50
2023-03-02T03:27:37.123Z,95686.25
2023-03-02T03:28:39.265Z,95687.00
2023-03-02T03:29:43.562Z,95684.88
2023-03-02T03:30:47.155Z,95690.72
2023-03-02T03:31:48.805Z,95691.00
2023-03-02T03:32:50.405Z,95683.81
2023-03-02T03:33:52.395Z,95688.28
2023-03-02T03:34:53.959Z,95683.44
2023-03-02T03:36:07.392Z,95688.19
2023-03-02T03:37:10.913Z,95678.53
2023-03-02T03:38:12.573Z,95681.81
2023-03-02T03:39:15.257Z,95682.84
2023-03-02T03:40:16.712Z,95684.25
2023-03-02T03:41:19.808Z,95684.00
2023-03-02T03:42:21.452Z,95678.94
2023-03-02T03:43:23.899Z,95680.25
2023-03-02T03:44:28.559Z,95683.03
2023-03-02T03:45:30.930Z,95678.22
2023-03-02T03:46:33.500Z,95687.06
2023-03-02T03:47:35.375Z,95684.09
2023-03-02T03:48:38.383Z,95685.69
2023-03-02T03:49:40.409Z,95679.75
2023-03-02T03:50:42.514Z,95681.31
2023-03-02T03:51:44.114Z,95685.56
2023-03-02T03:52:45.753Z,95687.16
2023-03-02T03:54:01.221Z,95686.09
2023-03-02T03:55:08.645Z,95690.63
2023-03-02T03:56:10.378Z,95688.75
2023-03-02T03:57:12.151Z,95681.25
2023-03-02T03:58:14.474Z,95686.66
2023-03-02T03:59:19.474Z,95682.94
2023-03-02T04:00:27.805Z,95682.94
2023-03-02T04:01:47.196Z,95683.72
2023-03-02T04:02:50.689Z,95694.72
2023-03-02T04:03:52.909Z,95689.63
2023-03-02T04:04:54.510Z,95684.25
2023-03-02T04:05:56.142Z,95687.25
2023-03-02T04:06:58.585Z,95696.88
2023-03-02T04:08:02.212Z,95689.91
2023-03-02T04:09:05.706Z,95687.25
2023-03-02T04:10:09.642Z,95689.38
2023-03-02T04:11:13.331Z,95691.53
2023-03-02T04:12:14.976Z,95687.31
2023-03-02T04:13:26.221Z,95687.38
2023-03-02T04:14:27.911Z,95688.53
2023-03-02T04:15:30.750Z,95692.31
2023-03-02T04:16:34.759Z,95684.28
2023-03-02T04:17:36.518Z,95681.63
2023-03-02T04:18:38.300Z,95690.47
2023-03-02T04:19:40.942Z,95690.22
2023-03-02T04:20:43.876Z,95695.34
2023-03-02T04:21:48.034Z,95687.06
2023-03-02T04:22:53.314Z,95691.38
2023-03-02T04:23:55.068Z,95685.22
2023-03-02T04:24:57.786Z,95690.84
2023-03-02T04:26:01.328Z,95683.59
2023-03-02T04:27:03.230Z,95684.44
2023-03-02T04:28:06.123Z,95680.41
2023-03-02T04:29:12.584Z,95685.47
2023-03-02T04:30:17.838Z,95687.91
2023-03-02T04:31:19.503Z,95683.34
2023-03-02T04:32:21.862Z,95686.03
2023-03-02T04:33:28.363Z,95690.06
2023-03-02T04:34:30.204Z,95686.03
2023-03-02T04:35:31.924Z,95689.22
2023-03-02T04:36:36.956Z,95686.28
2023-03-02T04:37:41.353Z,95684.41
2023-03-02T04:38:42.891Z,95687.34
2023-03-02T04:39:47.375Z,95690.78
2023-03-02T04:40:49.244Z,95694.53
2023-03-02T04:41:51.232Z,95689.44
2023-03-02T04:42:52.830Z,95690.78
2023-03-02T04:43:54.369Z,95687.53
2023-03-02T04:44:56.025Z,95689.44
2023-03-02T04:45:58.156Z,95687.03
2023-03-02T04:46:59.743Z,95692.09
2023-03-02T04:48:01.401Z,95689.13
2023-03-02T04:49:04.281Z,95697.44
2023-03-02T04:50:06.593Z,95694.50
2023-03-02T04:51:14.300Z,95689.13
2023-03-02T04:52:16.399Z,95695.00
2023-03-02T04:53:18.024Z,95689.91
2023-03-02T04:54:27.152Z,95693.41
2023-03-02T04:55:28.775Z,95689.06
2023-03-02T04:56:31.015Z,95691.75
2023-03-02T04:57:33.266Z,95687.72
2023-03-02T04:58:34.822Z,95687.47
2023-03-02T04:59:36.420Z,95693.38
2023-03-02T05:00:38.106Z,95685.31
2023-03-02T05:01:41.241Z,95686.91
2023-03-02T05:02:42.877Z,95693.91
2023-03-02T05:03:44.545Z,95695.56
2023-03-02T05:04:46.196Z,95686.41
2023-03-02T05:05:47.862Z,95697.94
2023-03-02T05:06:49.592Z,95693.13
2023-03-02T05:07:51.497Z,95690.97
2023-03-02T05:08:53.758Z,95690.16
2023-03-02T05:09:55.284Z,95689.06
2023-03-02T05:10:58.214Z,95686.97
2023-03-02T05:12:01.093Z,95687.22
2023-03-02T05:13:04.760Z,95682.69
2023-03-02T05:14:08.646Z,95688.31
2023-03-02T05:15:10.748Z,95697.47
2023-03-02T05:16:12.461Z,95691.81
2023-03-02T05:17:14.086Z,95691.81
2023-03-02T05:18:15.672Z,95692.31
2023-03-02T05:19:17.566Z,95687.22
2023-03-02T05:20:19.719Z,95696.13
2023-03-02T05:21:21.842Z,95690.78
2023-03-02T05:22:23.445Z,95683.78
2023-03-02T05:23:25.939Z,95678.72
2023-03-02T05:24:27.803Z,95687.84
2023-03-02T05:25:31.887Z,95683.78
2023-03-02T05:26:33.838Z,95684.09
2023-03-02T05:27:36.776Z,95687.03
2023-03-02T05:28:38.390Z,95689.72
2023-03-02T05:29:39.969Z,95691.28
2023-03-02T05:30:42.048Z,95684.59
2023-03-02T05:31:46.299Z,95688.66
2023-03-02T05:32:48.978Z,95681.34
2023-03-02T05:33:50.447Z,95686.44
2023-03-02T05:34:52.002Z,95680.28
2023-03-02T05:35:53.755Z,95682.16
2023-03-02T05:36:57.140Z,95683.78
2023-03-02T05:37:58.713Z,95682.38
2023-03-02T05:39:00.275Z,95683.16
2023-03-02T05:40:01.861Z,95685.31
2023-03-02T05:41:03.984Z,95686.66
2023-03-02T05:42:06.040Z,95682.09
2023-03-02T05:43:08.112Z,95687.22
2023-03-02T05:44:12.020Z,95686.41
2023-03-02T05:45:19.846Z,95689.88
2023-03-02T05:46:29.826Z,95690.13
2023-03-02T05:47:31.516Z,95681.84
2023-03-02T05:48:33.134Z,95692.56
2023-03-02T05:49:34.731Z,95686.91
2023-03-02T05:50:36.297Z,95687.47
2023-03-02T05:51:38.054Z,95696.84
2023-03-02T05:52:39.677Z,95682.34
2023-03-02T05:53:41.220Z,95689.59
2023-03-02T05:54:42.811Z,95697.63
2023-03-02T05:55:44.405Z,95693.31
2023-03-02T05:56:45.954Z,95694.41
2023-03-02T05:57:49.426Z,95697.63
2023-03-02T05:58:51.060Z,95703.25
2023-03-02T05:59:52.659Z,95702.16
2023-03-02T06:00:54.223Z,95703.22
2023-03-02T06:01:58.807Z,95702.44
2023-03-02T06:03:00.658Z,95693.63
2023-03-02T06:04:02.784Z,95699.00
2023-03-02T06:05:08.547Z,95702.44
2023-03-02T06:06:13.933Z,95693.66
2023-03-02T06:07:15.889Z,95700.38
2023-03-02T06:08:18.909Z,95696.63
2023-03-02T06:09:20.540Z,95689.66
2023-03-02T06:10:22.875Z,95699.25
2023-03-02T06:11:24.442Z,95699.81
2023-03-02T06:12:26.036Z,95701.13
2023-03-02T06:13:27.842Z,95699.50
2023-03-02T06:14:29.398Z,95707.00
2023-03-02T06:15:31.170Z,95699.25
2023-03-02T06:16:34.161Z,95698.44
2023-03-02T06:17:36.048Z,95702.75
2023-03-02T06:18:40.888Z,95706.50
2023-03-02T06:19:42.985Z,95714.03
2023-03-02T06:20:44.549Z,95705.19
2023-03-02T06:21:46.098Z,95707.34
2023-03-02T06:22:47.757Z,95703.63
2023-03-02T06:23:49.495Z,95711.13
2023-03-02T06:24:51.154Z,95716.81
2023-03-02T06:25:52.783Z,95721.97
2023-03-02T06:26:54.911Z,95719.78
2023-03-02T06:27:56.436Z,95716.03
2023-03-02T06:28:58.822Z,95716.84
2023-03-02T06:30:00.544Z,95722.22
2023-03-02T06:31:02.194Z,95715.28
2023-03-02T06:32:03.941Z,95719.84
2023-03-02T06:33:05.578Z,95720.97
2023-03-02T06:34:07.172Z,95710.84
2023-03-02T06:35:09.517Z,95714.06
2023-03-02T06:36:12.560Z,95708.97
2023-03-02T06:37:14.207Z,95713.25
2023-03-02T06:38:16.032Z,95716.22
2023-03-02T06:39:17.660Z,95715.97
2023-03-02T06:40:21.167Z,95713.81
2023-03-02T06:41:22.839Z,95715.19
2023-03-02T06:42:29.263Z,95723.28
2023-03-02T06:43:30.840Z,95724.59
2023-03-02T06:44:32.496Z,95723.03
2023-03-02T06:45:34.259Z,95718.50
2023-03-02T06:46:36.639Z,95717.16
2023-03-02T06:47:38.657Z,95717.72
2023-03-02T06:48:40.216Z,95725.81
2023-03-02T06:49:41.838Z,95725.25
2023-03-02T06:50:43.412Z,95726.34
2023-03-02T06:51:44.994Z,95718.03
2023-03-02T06:52:46.567Z,95722.88
2023-03-02T06:53:48.129Z,95727.16
2023-03-02T06:54:49.716Z,95726.34
2023-03-02T06:55:51.488Z,95715.63
2023-03-02T06:56:53.098Z,95721.78
2023-03-02T06:57:54.725Z,95724.75
2023-03-02T06:58:56.350Z,95725.31
2023-03-02T06:59:57.911Z,95725.56
2023-03-02T07:00:59.545Z,95730.97
2023-03-02T07:02:01.429Z,95732.28
2023-03-02T07:03:03.042Z,95735.53
2023-03-02T07:04:04.813Z,95726.09
2023-03-02T07:05:07.068Z,95730.97
2023-03-02T07:06:08.629Z,95736.03
2023-03-02T07:07:10.242Z,95728.28
2023-03-02T07:08:11.789Z,95725.59
2023-03-02T07:09:13.693Z,95727.97
2023-03-02T07:10:16.129Z,95728.50
2023-03-02T07:11:17.766Z,95730.34
2023-03-02T07:12:19.418Z,95736.75
2023-03-02T07:13:21.037Z,95732.78
2023-03-02T07:14:22.626Z,95733.16
2023-03-02T07:15:24.216Z,95724.69
2023-03-02T07:16:26.023Z,95728.41
2023-03-02T07:17:27.703Z,95732.88
2023-03-02T07:18:29.310Z,95727.84
2023-03-02T07:19:30.912Z,95733.91
2023-03-02T07:20:32.566Z,95730.44
2023-03-02T07:21:34.530Z,95735.53
2023-03-02T07:22:36.651Z,95736.44
2023-03-02T07:23:38.271Z,95737.47
2023-03-02T07:24:39.877Z,95734.41
2023-03-02T07:25:41.479Z,95730.16
2023-03-02T07:26:43.322Z,95731.69
2023-03-02T07:27:44.978Z,95732.69
2023-03-02T07:28:46.624Z,95736.56
2023-03-02T07:29:48.217Z,95740.84
2023-03-02T07:30:51.033Z,95732.38
2023-03-02T07:31:57.065Z,95728.56
2023-03-02T07:32:58.667Z,95733.16
2023-03-02T07:34:00.301Z,95730.25
2023-03-02T07:35:02.050Z,95731.13
2023-03-02T07:36:04.242Z,95738.81
2023-03-02T07:37:05.932Z,95743.28
2023-03-02T07:38:07.496Z,95735.88
2023-03-02T07:39:09.042Z,95738.88
2023-03-02T07:40:12.199Z,95747.09
2023-03-02T07:41:15.491Z,95749.22
2023-03-02T07:42:17.430Z,95744.09
2023-03-02T07:43:25.425Z,95742.19
2023-03-02T07:44:27.735Z,95752.41
2023-03-02T07:45:29.322Z,95740.56
2023-03-02T07:46:31.029Z,95743.81
2023-03-02T07:47:32.772Z,95745.75
2023-03-02T07:48:34.619Z,95747.31
2023-03-02T07:49:36.171Z,95744.28
2023-03-02T07:50:38.053Z,95752.22
2023-03-02T07:51:39.672Z,95745.47
2023-03-02T07:52:41.322Z,95749.81
2023-03-02T07:53:42.915Z,95752.19
2023-03-02T07:54:44.510Z,95746.03
2023-03-02T07:55:46.066Z,95747.78
2023-03-02T07:56:47.735Z,95749.44
2023-03-02T07:57:49.361Z,95748.00
2023-03-02T07:58:50.943Z,95738.41
2023-03-02T07:59:52.495Z,95743.66
2023-03-02T08:00:54.083Z,95751.84
2023-03-02T08:01:56.913Z,95748.75
2023-03-02T08:02:58.659Z,95750.25
2023-03-02T08:04:00.286Z,95747.94
2023-03-02T08:05:01.893Z,95753.78
2023-03-02T08:06:11.336Z,95757.56
2023-03-02T08:07:12.927Z,95746.22
2023-03-02T08:08:14.717Z,95756.66
2023-03-02T08:09:17.187Z,95757.50
2023-03-02T08:10:18.920Z,95756.63
2023-03-02T08:11:20.569Z,95753.38
2023-03-02T08:12:22.255Z,95757.50
2023-03-02T08:13:23.854Z,95751.38
2023-03-02T08:14:25.539Z,95750.97
2023-03-02T08:15:27.138Z,95751.06
2023-03-02T08:16:29.389Z,95756.28
2023-03-02T08:17:31.113Z,95758.44
2023-03-02T08:18:33.249Z,95760.34
2023-03-02T08:19:34.837Z,95749.25
2023-03-02T08:20:37.283Z,95756.09
2023-03-02T08:21:38.972Z,95758.63
2023-03-02T08:22:40.599Z,95756.84
2023-03-02T08:23:42.573Z,95754.94
2023-03-02T08:24:44.213Z,95753.41
2023-03-02T08:25:45.857Z,95757.44
2023-03-02T08:26:47.444Z,95754.44
2023-03-02T08:27:49.033Z,95752.69
2023-03-02T08:28:50.673Z,95763.75
2023-03-02T08:29:54.153Z,95757.72
2023-03-02T08:31:00.138Z,95763.91
2023-03-02T08:32:01.934Z,95764.94
2023-03-02T08:33:06.986Z,95761.97
2023-03-02T08:34:08.815Z,95757.31
2023-03-02T08:35:10.613Z,95758.16
2023-03-02T08:36:17.028Z,95762.53
2023-03-02T08:37:19.286Z,95750.00
2023-03-02T08:38:20.902Z,95749.53
2023-03-02T08:39:23.520Z,95752.59
2023-03-02T08:40:26.216Z,95753.84
2023-03-02T08:41:27.798Z,95752.41
2023-03-02T08:42:29.420Z,95745.00
2023-03-02T08:43:30.986Z,95756.41
2023-03-02T08:44:32.578Z,95747.69
2023-03-02T08:45:34.766Z,95751.47
2023-03-02T08:46:36.360Z,95752.09
2023-03-02T08:47:38.134Z,95745.34
2023-03-02T08:48:39.787Z,95756.75
2023-03-02T08:49:41.480Z,95747.94
2023-03-02T08:50:43.076Z,95751.59
2023-03-02T08:51:45.392Z,95743.13
2023-03-02T08:52:47.321Z,95747.38
2023-03-02T08:53:50.604Z,95738.81
2023-03-02T08:54:52.291Z,95739.16
2023-03-02T08:55:54.795Z,95742.59
2023-03-02T08:56:56.256Z,95741.78
2023-03-02T08:57:57.841Z,95746.78
2023-03-02T08:59:02.229Z,95745.41
2023-03-02T09:00:08.629Z,95738.09
2023-03-02T09:01:15.150Z,95748.56
2023-03-02T09:02:16.924Z,95749.13
2023-03-02T09:03:18.538Z,95743.75
2023-03-02T09:04:20.184Z,95749.47
2023-03-02T09:05:21.781Z,95750.19
2023-03-02T09:06:23.457Z,95751.91
2023-03-02T09:07:25.127Z,95742.63
2023-03-02T09:08:26.823Z,95745.53
2023-03-02T09:09:28.452Z,95740.81
2023-03-02T09:10:30.041Z,95751.44
2023-03-02T09:11:32.747Z,95745.59
2023-03-02T09:12:34.566Z,95748.53
2023-03-02T09:13:36.461Z,95756.25
2023-03-02T09:14:38.176Z,95750.03
2023-03-02T09:15:39.841Z,95750.00
2023-03-02T09:16:41.628Z,95749.97
2023-03-02T09:17:43.823Z,95762.06
2023-03-02T09:18:45.410Z,95758.13
2023-03-02T09:19:47.050Z,95749.31
2023-03-02T09:20:52.475Z,95752.06
2023-03-02T09:21:54.121Z,95754.50
2023-03-02T09:22:55.707Z,95750.84
2023-03-02T09:23:58.458Z,95750.16
2023-03-02T09:25:00.102Z,95753.53
2023-03-02T09:26:01.696Z,95754.34
2023-03-02T09:27:04.005Z,95756.88
2023-03-02T09:28:05.561Z,95752.06
2023-03-02T09:29:07.340Z,95749.97
2023-03-02T09:30:09.896Z,95752.41
2023-03-02T09:31:11.678Z,95754.41
2023-03-02T09:32:15.879Z,95751.59
2023-03-02T09:33:17.768Z,95762.56
2023-03-02T09:34:19.676Z,95755.13
2023-03-02T09:35:21.249Z,95759.47
2023-03-02T09:36:24.493Z,95749.97
2023-03-02T09:37:28.051Z,95752.06
2023-03-02T09:38:29.705Z,95758.28
2023-03-02T09:39:31.322Z,95752.47
2023-03-02T09:40:34.052Z,95756.25
2023-03-02T09:41:50.433Z,95756.94
2023-03-02T09:43:04.068Z,95762.88
2023-03-02T09:44:27.365Z,95762.97
2023-03-02T09:45:39.851Z,95754.50
2023-03-02T09:46:49.261Z,95759.16
2023-03-02T09:48:17.040Z,95760.22
2023-03-02T09:49:40.009Z,95751.47
2023-03-02T09:51:00.922Z,95760.19
2023-03-02T09:52:06.804Z,95747.31
2023-03-02T09:53:15.483Z,95747.94
2023-03-02T09:54:21.241Z,95754.28
2023-03-02T09:55:28.273Z,95758.00
2023-03-02T09:56:31.064Z,95756.25
2023-03-02T09:57:35.316Z,95757.75
2023-03-02T09:58:39.776Z,95750.44
2023-03-02T09:59:49.012Z,95758.94
2023-03-02T10:00:51.389Z,95754.34
2023-03-02T10:02:23.429Z,95765.72
2023-03-02T10:03:32.477Z,95759.28
2023-03-02T10:04:42.883Z,95762.44
2023-03-02T10:05:54.581Z,95761.41
2023-03-02T10:07:10.505Z,95753.22
2023-03-02T10:08:23.090Z,95753.69
2023-03-02T10:09:24.872Z,95758.50
2023-03-02T10:10:35.557Z,95758.06
2023-03-02T10:11:49.152Z,95750.47
2023-03-02T10:13:21.011Z,95748.44
2023-03-02T10:14:27.298Z,95753.09
2023-03-02T10:15:38.993Z,95751.19
2023-03-02T10:17:25.540Z,95758.50
2023-03-02T10:18:45.241Z,95755.66
2023-03-02T10:19:56.791Z,95762.97
2023-03-02T10:21:05.969Z,95757.81
2023-03-02T10:22:43.419Z,95763.72
2023-03-02T10:24:09.976Z,95762.09
2023-03-02T10:25:20.949Z,95765.41
2023-03-02T10:26:35.868Z,95763.75
2023-03-02T10:27:43.983Z,95758.81
2023-03-02T10:28:54.035Z,95763.59
2023-03-02T10:30:16.050Z,95766.78
2023-03-02T10:31:29.775Z,95762.81
2023-03-02T10:32:42.202Z,95773.59
2023-03-02T10:33:44.055Z,95767.31
2023-03-02T10:34:45.901Z,95771.94
2023-03-02T10:35:52.236Z,95770.56
2023-03-02T10:36:54.023Z,95766.84
2023-03-02T10:38:00.258Z,95770.16
2023-03-02T10:39:03.387Z,95769.00
2023-03-02T10:40:05.264Z,95761.22
2023-03-02T10:41:08.658Z,95754.81
2023-03-02T10:42:23.797Z,95762.47
2023-03-02T10:43:34.291Z,95764.50
2023-03-02T10:44:39.259Z,95769.59
2023-03-02T10:45:40.964Z,95766.09
2023-03-02T10:46:45.150Z,95767.16
2023-03-02T10:47:46.794Z,95763.09
2023-03-02T10:48:56.386Z,95763.25
2023-03-02T10:49:58.302Z,95767.91
2023-03-02T10:51:00.473Z,95762.50
2023-03-02T10:52:16.963Z,95761.88
2023-03-02T10:53:19.074Z,95768.88
2023-03-02T10:54:20.761Z,95767.63
2023-03-02T10:55:22.658Z,95770.59
2023-03-02T10:56:24.299Z,95762.53
2023-03-02T10:57:39.096Z,95767.31
2023-03-02T10:58:41.019Z,95760.25
2023-03-02T10:59:47.126Z,95761.47
2023-03-02T11:01:18.410Z,95761.31
2023-03-02T11:02:25.161Z,95763.84
2023-03-02T11:03:27.289Z,95767.38
2023-03-02T11:04:30.493Z,95770.47
2023-03-02T11:05:40.022Z,95750.59
2023-03-02T11:06:41.602Z,95755.31
2023-03-02T11:07:52.963Z,95756.19
2023-03-02T11:09:00.957Z,95756.03
2023-03-02T11:10:06.640Z,95757.50
2023-03-02T11:11:21.940Z,95756.03
2023-03-02T11:12:23.646Z,95762.91
2023-03-02T11:13:36.771Z,95755.84
2023-03-02T11:14:38.465Z,95762.47
2023-03-02T11:16:18.592Z,95770.63
2023-03-02T11:17:33.397Z,95762.72
2023-03-02T11:18:40.474Z,95766.19
2023-03-02T11:19:42.135Z,95762.38
2023-03-02T11:20:45.770Z,95764.50
2023-03-02T11:21:55.995Z,95758.19
2023-03-02T11:23:18.670Z,95749.09
2023-03-02T11:24:30.952Z,95757.31
2023-03-02T11:25:37.163Z,95762.31
2023-03-02T11:26:52.548Z,95753.22
2023-03-02T11:28:03.946Z,95755.31
2023-03-02T11:29:29.832Z,95753.00
2023-03-02T11:30:34.419Z,95758.88
2023-03-02T11:31:44.337Z,95747.38
2023-03-02T11:32:58.949Z,95753.31
2023-03-02T11:34:29.168Z,95752.03
2023-03-02T11:35:42.749Z,95747.72
2023-03-02T11:36:56.509Z,95751.84
2023-03-02T11:38:06.308Z,95750.81
2023-03-02T11:39:12.437Z,95742.44
2023-03-02T11:40:37.034Z,95746.81
2023-03-02T11:41:38.733Z,95748.38
2023-03-02T11:42:42.381Z,95748.16
2023-03-02T11:43:43.978Z,95747.13
2023-03-02T11:44:47.264Z,95742.50
2023-03-02T11:45:58.500Z,95746.47
2023-03-02T11:47:01.258Z,95738.47
2023-03-02T11:48:07.254Z,95741.44
2023-03-02T11:49:15.373Z,95741.59
2023-03-02T11:50:16.958Z,95736.78
2023-03-02T11:51:22.895Z,95740.03
2023-03-02T11:52:29.051Z,95735.81
2023-03-02T11:53:43.564Z,95736.72
2023-03-02T11:54:46.196Z,95732.72
2023-03-02T11:55:50.651Z,95740.38
2023-03-02T11:56:52.451Z,95740.44
2023-03-02T11:59:12.707Z,95736.25
2023-03-02T12:00:32.294Z,95737.91
2023-03-02T12:01:36.107Z,95733.81
2023-03-02T12:02:38.175Z,95727.91
2023-03-02T12:03:41.569Z,95734.66
2023-03-02T12:04:43.149Z,95732.38
2023-03-02T12:05:58.684Z,95726.44
2023-03-02T12:07:03.693Z,95734.19
2023-03-02T12:08:35.353Z,95731.84
2023-03-02T12:09:37.938Z,95733.22
2023-03-02T12:10:43.073Z,95731.34
2023-03-02T12:11:46.101Z,95731.78
2023-03-02T12:12:48.578Z,95728.31
2023-03-02T12:13:50.071Z,95734.44
2023-03-02T12:14:52.503Z,95733.09
2023-03-02T12:15:56.388Z,95736.78
2023-03-02T12:17:06.333Z,95736.19
2023-03-02T12:18:23.356Z,95724.44
2023-03-02T12:19:38.388Z,95726.75
2023-03-02T12:20:42.903Z,95731.38
2023-03-02T12:22:10.554Z,95735.63
2023-03-02T12:23:25.012Z,95737.66
2023-03-02T12:24:31.874Z,95733.13
2023-03-02T12:25:43.853Z,95741.47
2023-03-02T12:26:45.411Z,95732.16
2023-03-02T12:27:49.105Z,95735.72
2023-03-02T12:29:02.920Z,95731.16
2023-03-02T12:30:23.678Z,95732.38
2023-03-02T12:31:26.054Z,95734.56
2023-03-02T12:32:30.274Z,95735.72
2023-03-02T12:33:32.142Z,95734.03
2023-03-02T12:34:43.254Z,95739.13
2023-03-02T12:35:45.570Z,95737.22
2023-03-02T12:36:47.752Z,95739.66
2023-03-02T12:37:57.101Z,95739.06
2023-03-02T12:39:26.170Z,95733.47
2023-03-02T12:41:02.161Z,95734.22
2023-03-02T12:42:16.285Z,95740.78
2023-03-02T12:43:55.330Z,95730.38